Time;durP1;ratioP1;P1;durP2;ratioP2;P2;SDS_P1;SDS_P2;PMS_P1;PMS_P2;Temp;Humidity;BMP_temperature;BMP_pressure;BME280_temperature;BME280_humidity;BME280_pressure;Samples;Min_cycle;Max_cycle;Signal;HPM_P1;HPM_P2
2022/08/19 00:01:08;;;;;;;8.85;8.07;;;24.10;99.90;;;;;;5048735;28;20223;-76
2022/08/19 00:03:34;;;;;;;8.65;7.95;;;24.10;99.90;;;;;;5061957;28;20286;-78
2022/08/19 00:05:59;;;;;;;9.40;8.70;;;24.00;99.90;;;;;;5056009;28;20311;-76
2022/08/19 00:08:25;;;;;;;8.52;7.82;;;24.00;99.90;;;;;;5049202;28;20206;-76
2022/08/19 00:10:50;;;;;;;9.50;8.77;;;24.00;99.90;;;;;;5049003;28;20641;-76
2022/08/19 00:13:16;;;;;;;8.82;8.13;;;23.90;99.90;;;;;;5049313;28;20190;-75
2022/08/19 00:15:44;;;;;;;8.90;8.25;;;23.80;99.90;;;;;;5043775;28;20195;-74
2022/08/19 00:18:10;;;;;;;9.13;7.72;;;23.70;99.90;;;;;;5055196;28;20202;-75
2022/08/19 00:20:35;;;;;;;9.25;8.50;;;23.60;99.90;;;;;;5052321;28;20189;-78
2022/08/19 00:23:00;;;;;;;8.85;8.18;;;23.70;99.90;;;;;;5046720;28;20195;-78
2022/08/19 00:25:26;;;;;;;8.65;7.95;;;23.70;99.90;;;;;;5051378;28;20289;-75
2022/08/19 00:27:51;;;;;;;9.85;9.00;;;23.70;99.90;;;;;;5055470;28;20664;-77
2022/08/19 00:30:17;;;;;;;9.38;8.13;;;23.80;99.90;;;;;;5060015;28;20210;-69
2022/08/19 00:32:42;;;;;;;9.98;8.80;;;23.80;99.90;;;;;;5061630;28;20218;-78
2022/08/19 00:35:09;;;;;;;8.35;7.63;;;23.80;99.90;;;;;;5057448;28;20191;-66
2022/08/19 00:37:35;;;;;;;7.80;6.95;;;23.80;99.90;;;;;;5053590;28;20932;-75
2022/08/19 00:40:02;;;;;;;23.70;8.68;;;24.00;99.90;;;;;;5063882;28;20194;-72
2022/08/19 00:42:28;;;;;;;9.05;8.18;;;24.20;99.90;;;;;;5048907;28;20198;-73
2022/08/19 00:44:53;;;;;;;8.80;8.10;;;24.30;99.90;;;;;;5050351;28;20531;-74
2022/08/19 00:47:19;;;;;;;8.73;7.93;;;24.40;99.90;;;;;;5048641;28;20434;-74
2022/08/19 00:49:50;;;;;;;8.23;7.63;;;24.50;99.90;;;;;;5049435;28;20235;-72
2022/08/19 00:52:28;;;;;;;9.57;8.73;;;24.60;99.90;;;;;;5044796;28;20237;-72
2022/08/19 00:54:54;;;;;;;9.73;8.52;;;24.60;99.90;;;;;;5065979;28;20187;-72
2022/08/19 00:57:27;;;;;;;9.65;8.50;;;24.50;99.90;;;;;;5051377;28;20692;-71
2022/08/19 00:59:55;;;;;;;8.82;7.95;;;24.50;99.90;;;;;;5059396;28;20270;-71
2022/08/19 01:02:21;;;;;;;9.40;8.60;;;24.50;99.90;;;;;;5055429;28;20218;-71
2022/08/19 01:04:46;;;;;;;8.50;7.70;;;24.40;99.90;;;;;;5060495;28;20544;-72
2022/08/19 01:07:12;;;;;;;9.70;8.40;;;24.40;99.90;;;;;;5056849;28;20569;-68
2022/08/19 01:09:38;;;;;;;7.90;7.25;;;24.30;99.90;;;;;;5059262;28;20211;-68
2022/08/19 01:12:04;;;;;;;9.15;8.45;;;24.20;99.90;;;;;;5062931;28;20287;-72
2022/08/19 01:14:30;;;;;;;10.65;8.88;;;24.10;99.90;;;;;;5047867;28;20179;-73
2022/08/19 01:16:56;;;;;;;9.80;8.80;;;24.10;99.90;;;;;;5050967;28;20226;-73
2022/08/19 01:19:31;;;;;;;8.75;8.02;;;24.20;99.90;;;;;;5067859;28;20210;-73
2022/08/19 01:22:16;;;;;;;9.23;8.32;;;24.20;99.90;;;;;;5060142;28;20264;-73
2022/08/19 01:24:41;;;;;;;9.43;8.55;;;24.40;99.90;;;;;;5068038;28;20203;-74
2022/08/19 01:27:07;;;;;;;9.10;8.00;;;24.40;99.90;;;;;;5061582;28;20195;-73
2022/08/19 01:29:34;;;;;;;9.30;8.00;;;24.40;99.90;;;;;;5051318;28;20700;-72
2022/08/19 01:32:01;;;;;;;8.02;7.38;;;24.40;99.90;;;;;;5055554;28;20285;-73
2022/08/19 01:34:26;;;;;;;9.45;8.55;;;24.30;99.90;;;;;;5057277;28;20187;-74
2022/08/19 01:36:51;;;;;;;9.07;8.20;;;24.30;99.90;;;;;;5053394;28;20670;-73
2022/08/19 01:39:23;;;;;;;8.80;8.05;;;24.20;99.90;;;;;;5065068;28;20299;-73
2022/08/19 01:41:50;;;;;;;8.57;7.80;;;24.10;99.90;;;;;;5064443;28;20199;-73
2022/08/19 01:44:15;;;;;;;9.00;8.30;;;24.00;99.90;;;;;;5060053;28;20209;-72
2022/08/19 01:46:43;;;;;;;8.40;7.60;;;24.00;99.90;;;;;;5054282;28;20893;-74
2022/08/19 01:49:09;;;;;;;8.77;7.80;;;24.00;99.90;;;;;;5062888;28;20311;-74
2022/08/19 01:51:36;;;;;;;8.50;7.70;;;24.00;99.90;;;;;;5063483;28;20198;-73
2022/08/19 01:54:02;;;;;;;8.48;7.72;;;24.00;99.90;;;;;;5059534;28;20254;-71
2022/08/19 01:56:28;;;;;;;8.82;8.00;;;23.90;99.90;;;;;;5052471;28;20192;-73
2022/08/19 01:59:01;;;;;;;9.98;9.00;;;23.90;99.90;;;;;;5061645;28;20253;-71
2022/08/19 02:01:27;;;;;;;9.15;8.25;;;23.80;99.90;;;;;;5060780;28;20239;-74
2022/08/19 02:03:53;;;;;;;10.82;8.20;;;23.80;99.90;;;;;;5063881;28;20234;-74
2022/08/19 02:06:20;;;;;;;9.05;8.25;;;23.70;99.90;;;;;;5057911;28;20224;-72
2022/08/19 02:08:46;;;;;;;9.70;8.77;;;23.80;99.90;;;;;;5054893;28;20194;-74
2022/08/19 02:11:28;;;;;;;9.80;8.60;;;23.80;99.90;;;;;;5058634;28;20224;-75
2022/08/19 02:13:55;;;;;;;8.93;8.10;;;23.60;99.90;;;;;;5059844;28;20205;-64
2022/08/19 02:16:21;;;;;;;8.05;7.25;;;23.50;99.90;;;;;;5059233;28;20260;-65
2022/08/19 02:18:50;;;;;;;9.13;8.32;;;23.40;99.90;;;;;;5062676;28;20668;-62
2022/08/19 02:21:18;;;;;;;9.75;8.68;;;23.50;99.90;;;;;;5062333;28;20209;-63
2022/08/19 02:23:45;;;;;;;9.83;8.80;;;23.40;99.90;;;;;;5059246;28;20198;-62
2022/08/19 02:26:12;;;;;;;10.07;9.20;;;23.50;99.90;;;;;;5050194;28;20206;-63
2022/08/19 02:28:37;;;;;;;11.07;8.30;;;23.40;99.90;;;;;;5053273;28;20210;-65
2022/08/19 02:31:08;;;;;;;10.20;9.20;;;23.30;99.90;;;;;;5058575;28;20248;-66
2022/08/19 02:33:34;;;;;;;10.57;9.48;;;23.20;99.90;;;;;;5056583;28;20216;-66
2022/08/19 02:36:04;;;;;;;10.17;9.37;;;23.10;99.90;;;;;;5063516;28;20194;-65
2022/08/19 02:38:29;;;;;;;9.90;9.00;;;23.10;99.90;;;;;;5063405;28;20217;-66
2022/08/19 02:40:58;;;;;;;10.33;9.23;;;23.00;99.90;;;;;;5058560;28;20194;-67
2022/08/19 02:43:25;;;;;;;10.30;9.40;;;23.00;99.90;;;;;;5063665;28;20680;-65
2022/08/19 02:45:52;;;;;;;10.10;9.20;;;22.90;99.90;;;;;;5063182;28;20204;-65
2022/08/19 02:48:19;;;;;;;10.33;9.37;;;22.80;99.90;;;;;;5062488;28;20670;-65
2022/08/19 02:50:45;;;;;;;10.63;9.73;;;22.70;99.90;;;;;;5057128;28;20217;-69
2022/08/19 02:53:11;;;;;;;9.18;8.38;;;22.80;99.90;;;;;;5056121;28;20198;-69
2022/08/19 02:55:44;;;;;;;9.25;8.35;;;22.80;99.90;;;;;;5052959;28;20645;-69
2022/08/19 02:58:09;;;;;;;9.10;8.35;;;22.80;99.90;;;;;;5060194;28;20280;-70
2022/08/19 03:00:35;;;;;;;8.68;7.85;;;22.80;99.90;;;;;;5053751;28;20301;-69
2022/08/19 03:03:00;;;;;;;8.60;7.90;;;22.80;99.90;;;;;;5049060;28;20203;-69
2022/08/19 03:05:27;;;;;;;9.27;8.37;;;22.90;99.90;;;;;;5060057;28;20202;-69
2022/08/19 03:07:53;;;;;;;9.33;8.60;;;23.10;99.90;;;;;;5050273;28;20301;-69
2022/08/19 03:10:18;;;;;;;9.23;8.33;;;23.10;99.90;;;;;;5065734;28;20244;-70
2022/08/19 03:12:45;;;;;;;8.57;7.78;;;23.20;99.90;;;;;;5053235;28;20199;-69
2022/08/19 03:15:11;;;;;;;9.75;8.85;;;23.20;99.90;;;;;;5053069;28;20517;-69
2022/08/19 03:17:36;;;;;;;10.07;9.07;;;23.20;99.90;;;;;;5052173;28;20221;-69
2022/08/19 03:20:03;;;;;;;9.52;8.73;;;23.30;99.90;;;;;;5061721;28;20178;-69
2022/08/19 03:22:29;;;;;;;8.88;8.18;;;23.30;99.90;;;;;;5052891;28;20223;-68
2022/08/19 03:24:55;;;;;;;9.10;8.30;;;23.20;99.90;;;;;;5051293;28;20537;-68
2022/08/19 03:27:21;;;;;;;9.43;8.68;;;23.30;99.90;;;;;;5056124;28;20675;-68
2022/08/19 03:29:46;;;;;;;8.70;8.00;;;23.30;99.90;;;;;;5058371;28;20205;-68
2022/08/19 03:32:12;;;;;;;10.27;9.27;;;23.30;99.90;;;;;;5049812;28;20213;-69
2022/08/19 03:34:38;;;;;;;9.20;8.50;;;23.20;99.90;;;;;;5049573;28;20227;-69
2022/08/19 03:37:07;;;;;;;9.27;8.45;;;23.20;99.90;;;;;;5045031;28;20597;-68
2022/08/19 03:39:32;;;;;;;10.27;9.23;;;23.20;99.90;;;;;;5062222;28;20210;-69
2022/08/19 03:42:02;;;;;;;9.90;9.10;;;23.20;99.90;;;;;;5051804;28;20248;-68
2022/08/19 03:44:28;;;;;;;9.75;8.93;;;23.30;99.90;;;;;;5045642;28;20209;-68
2022/08/19 03:46:56;;;;;;;11.23;10.23;;;23.30;99.90;;;;;;5051244;28;20280;-68
2022/08/19 03:49:24;;;;;;;10.85;9.80;;;23.30;99.90;;;;;;5046844;28;20258;-68
2022/08/19 03:51:50;;;;;;;9.90;9.20;;;23.30;99.90;;;;;;5054919;28;20191;-69
2022/08/19 03:54:22;;;;;;;9.43;8.65;;;23.30;99.90;;;;;;5062082;28;20289;-69
2022/08/19 03:56:50;;;;;;;9.23;8.35;;;23.30;99.90;;;;;;5045309;28;20187;-64
2022/08/19 03:59:25;;;;;;;10.10;9.10;;;23.40;99.90;;;;;;5060324;28;20432;-64
2022/08/19 04:01:52;;;;;;;8.80;8.10;;;23.50;99.90;;;;;;5050420;28;20209;-64
2022/08/19 04:04:18;;;;;;;10.80;8.93;;;23.50;99.90;;;;;;5060362;28;20205;-63
2022/08/19 04:06:44;;;;;;;9.50;8.50;;;23.60;99.90;;;;;;5061819;28;20194;-63
2022/08/19 04:09:11;;;;;;;9.50;8.70;;;23.60;99.90;;;;;;5056095;28;20797;-63
2022/08/19 04:11:42;;;;;;;8.40;7.70;;;23.60;99.90;;;;;;5056073;28;20237;-63
2022/08/19 04:14:11;;;;;;;9.82;8.93;;;23.60;99.90;;;;;;5059774;28;20560;-63
2022/08/19 04:16:36;;;;;;;9.57;8.77;;;23.40;99.90;;;;;;5056713;28;20317;-64
2022/08/19 04:19:04;;;;;;;9.88;8.88;;;23.40;99.90;;;;;;5061844;28;20664;-64
2022/08/19 04:21:30;;;;;;;9.18;8.38;;;23.50;99.90;;;;;;5051383;28;20947;-64
2022/08/19 04:23:56;;;;;;;10.35;9.45;;;23.50;99.90;;;;;;5052184;28;20207;-63
2022/08/19 04:26:26;;;;;;;9.53;8.73;;;23.50;99.90;;;;;;5055272;28;20223;-65
2022/08/19 04:28:52;;;;;;;9.98;8.98;;;23.60;99.90;;;;;;5056921;28;20710;-64
2022/08/19 04:31:27;;;;;;;9.95;9.05;;;23.50;99.90;;;;;;5064712;28;20194;-66
2022/08/19 04:33:57;;;;;;;10.07;9.18;;;23.50;99.90;;;;;;5055423;28;20218;-65
2022/08/19 04:36:26;;;;;;;9.77;8.93;;;23.40;99.90;;;;;;5062634;28;20196;-66
2022/08/19 04:38:57;;;;;;;8.45;7.65;;;23.40;99.90;;;;;;5064102;28;20288;-66
2022/08/19 04:44:07;;;;;;;9.07;8.27;;;23.40;99.90;;;;;;5053504;28;20219;-65
2022/08/19 04:46:33;;;;;;;9.27;8.38;;;23.40;99.90;;;;;;5058729;28;20206;-64
2022/08/19 04:49:00;;;;;;;8.57;7.88;;;23.50;99.90;;;;;;5062899;28;20230;-64
2022/08/19 04:51:25;;;;;;;9.95;8.95;;;23.40;99.90;;;;;;5061080;28;20215;-63
2022/08/19 04:53:52;;;;;;;8.93;7.70;;;23.40;99.90;;;;;;5063636;28;20209;-63
2022/08/19 04:56:26;;;;;;;8.50;7.80;;;23.40;99.90;;;;;;5064264;28;20554;-62
2022/08/19 04:58:52;;;;;;;7.93;7.28;;;23.40;99.90;;;;;;5059950;28;20221;-63
2022/08/19 05:01:22;;;;;;;8.90;8.02;;;23.50;99.90;;;;;;5058460;28;20210;-65
2022/08/19 05:03:48;;;;;;;8.90;8.00;;;23.60;99.90;;;;;;5065463;28;20206;-65
2022/08/19 05:06:17;;;;;;;8.23;7.50;;;23.60;99.90;;;;;;5061215;28;20194;-67
2022/08/19 05:08:44;;;;;;;8.90;8.07;;;23.60;99.90;;;;;;5054354;28;20735;-66
2022/08/19 05:11:13;;;;;;;7.77;7.10;;;23.60;99.90;;;;;;5054752;28;20215;-65
2022/08/19 05:13:38;;;;;;;7.20;6.70;;;23.60;99.90;;;;;;5050535;28;20272;-64
2022/08/19 05:16:05;;;;;;;8.25;7.40;;;23.60;99.90;;;;;;5049405;28;20285;-66
2022/08/19 05:24:03;;;;;;;8.93;8.10;;;23.70;99.90;;;;;;5064056;28;20212;-64
2022/08/19 05:26:28;;;;;;;8.93;7.97;;;23.80;99.90;;;;;;5059878;28;20199;-63
2022/08/19 05:28:55;;;;;;;8.48;7.78;;;23.80;99.90;;;;;;5056106;28;20209;-67
2022/08/19 05:31:21;;;;;;;10.00;7.25;;;23.80;99.90;;;;;;5062791;28;20314;-69
2022/08/19 05:33:47;;;;;;;8.13;7.50;;;24.00;99.90;;;;;;5063564;28;20199;-67
2022/08/19 05:36:13;;;;;;;7.93;7.20;;;24.10;99.90;;;;;;5063398;28;20554;-67
2022/08/19 05:38:39;;;;;;;8.30;7.63;;;24.20;99.90;;;;;;5058629;28;20191;-72
2022/08/19 05:41:09;;;;;;;8.20;7.50;;;24.30;99.90;;;;;;5067509;28;20955;-73
2022/08/19 05:43:36;;;;;;;8.80;8.00;;;24.40;99.90;;;;;;5057200;28;20190;-70
2022/08/19 05:46:04;;;;;;;8.10;7.50;;;24.50;99.90;;;;;;5051529;28;20662;-73
2022/08/19 05:48:31;;;;;;;8.68;7.97;;;24.50;99.90;;;;;;5054651;28;20323;-69
2022/08/19 05:50:56;;;;;;;8.35;7.75;;;24.40;99.90;;;;;;5064459;28;20293;-69
2022/08/19 05:53:22;;;;;;;9.48;8.68;;;24.40;99.90;;;;;;5062445;28;20285;-67
2022/08/19 05:55:47;;;;;;;9.15;8.35;;;24.30;99.90;;;;;;5057237;28;20181;-67
2022/08/19 05:58:13;;;;;;;8.82;7.93;;;24.20;99.90;;;;;;5061634;28;20198;-63
2022/08/19 06:00:39;;;;;;;8.40;7.60;;;24.20;99.90;;;;;;5065913;28;20185;-68
2022/08/19 06:03:05;;;;;;;9.18;8.07;;;24.10;99.90;;;;;;5060779;28;20241;-66
2022/08/19 06:05:31;;;;;;;9.30;8.43;;;24.10;99.90;;;;;;5065172;28;20195;-70
2022/08/19 06:07:58;;;;;;;9.32;8.30;;;24.10;99.90;;;;;;5061803;28;20202;-68
2022/08/19 06:10:25;;;;;;;8.85;8.05;;;24.10;99.90;;;;;;5064001;28;20204;-66
2022/08/19 06:12:51;;;;;;;9.07;8.38;;;24.20;99.90;;;;;;5065392;28;20225;-68
2022/08/19 06:15:17;;;;;;;9.40;8.70;;;24.20;99.90;;;;;;5053379;28;20199;-68
2022/08/19 06:17:46;;;;;;;9.40;8.57;;;24.10;99.90;;;;;;5053336;28;20988;-68
2022/08/19 06:20:14;;;;;;;8.95;8.15;;;24.10;99.90;;;;;;5061638;28;20213;-66
2022/08/19 06:22:41;;;;;;;8.65;7.95;;;24.10;99.90;;;;;;5054229;28;20194;-65
2022/08/19 06:25:08;;;;;;;9.48;8.68;;;24.20;99.90;;;;;;5046963;28;20256;-67
2022/08/19 06:27:34;;;;;;;8.80;8.10;;;24.20;99.90;;;;;;5062965;28;20570;-63
2022/08/19 06:30:01;;;;;;;9.15;8.35;;;24.30;99.90;;;;;;5062858;28;20341;-65
2022/08/19 06:32:26;;;;;;;8.45;7.70;;;24.50;99.90;;;;;;5064465;28;20329;-68
2022/08/19 06:34:52;;;;;;;8.30;7.63;;;24.60;99.90;;;;;;5060863;28;20649;-68
2022/08/19 06:37:17;;;;;;;15.25;9.50;;;24.70;99.90;;;;;;5057193;28;20188;-66
2022/08/19 06:39:44;;;;;;;9.70;8.98;;;24.80;99.90;;;;;;5063435;28;20195;-66
2022/08/19 06:42:12;;;;;;;10.02;9.13;;;24.70;99.90;;;;;;5056475;28;20204;-66
2022/08/19 06:44:40;;;;;;;9.77;8.98;;;24.70;99.90;;;;;;5063808;28;20257;-68
2022/08/19 06:47:08;;;;;;;10.65;9.75;;;24.70;99.90;;;;;;5053496;28;20185;-69
2022/08/19 06:49:34;;;;;;;10.52;8.77;;;24.60;99.90;;;;;;5046477;28;20241;-69
2022/08/19 06:52:00;;;;;;;10.05;9.25;;;24.60;99.90;;;;;;5045580;28;20220;-69
2022/08/19 06:54:29;;;;;;;10.80;9.90;;;24.60;99.90;;;;;;5060005;28;20208;-68
2022/08/19 06:56:55;;;;;;;10.50;9.70;;;24.60;99.90;;;;;;5053961;28;20277;-68
2022/08/19 06:59:24;;;;;;;10.65;9.85;;;24.50;99.90;;;;;;5062843;28;20236;-67
2022/08/19 07:01:52;;;;;;;12.38;10.25;;;24.40;99.90;;;;;;5063324;28;20295;-66
2022/08/19 07:04:21;;;;;;;12.00;10.90;;;24.40;99.90;;;;;;5053865;28;20609;-67
2022/08/19 07:06:47;;;;;;;11.70;10.77;;;24.30;99.90;;;;;;5050363;28;20282;-67
2022/08/19 07:09:14;;;;;;;11.00;10.02;;;24.20;99.90;;;;;;5057767;28;20764;-68
2022/08/19 07:11:52;;;;;;;11.65;10.68;;;24.10;99.90;;;;;;5058958;28;20794;-67
2022/08/19 07:14:21;;;;;;;11.15;10.25;;;24.00;99.90;;;;;;5052964;28;20223;-67
2022/08/19 07:16:49;;;;;;;11.10;10.25;;;24.00;99.90;;;;;;5061965;28;20192;-71
2022/08/19 07:19:15;;;;;;;10.85;9.93;;;24.00;99.90;;;;;;5052649;28;20183;-72
2022/08/19 07:21:41;;;;;;;12.13;11.02;;;24.00;99.90;;;;;;5057807;28;20665;-71
2022/08/19 07:24:07;;;;;;;11.50;10.40;;;24.10;99.90;;;;;;5045456;28;20205;-71
2022/08/19 07:26:40;;;;;;;11.75;10.60;;;24.10;99.90;;;;;;5061707;28;20204;-68
2022/08/19 07:29:06;;;;;;;11.32;10.32;;;24.20;99.90;;;;;;5047276;28;20203;-67
2022/08/19 07:31:35;;;;;;;10.63;9.60;;;24.20;99.90;;;;;;5048870;28;20230;-68
2022/08/19 07:34:01;;;;;;;10.68;9.63;;;24.30;99.90;;;;;;5050116;28;20225;-68
2022/08/19 07:36:31;;;;;;;11.00;10.10;;;24.30;99.90;;;;;;5064927;28;20629;-68
2022/08/19 07:38:59;;;;;;;16.83;10.80;;;24.30;99.90;;;;;;5051896;28;20200;-65
2022/08/19 07:41:28;;;;;;;11.65;10.55;;;24.30;99.90;;;;;;5045109;28;20185;-66
2022/08/19 07:43:54;;;;;;;12.73;11.65;;;24.40;99.90;;;;;;5053784;28;20198;-67
2022/08/19 07:46:20;;;;;;;13.20;12.10;;;24.30;99.90;;;;;;5059537;28;20722;-75
2022/08/19 07:48:47;;;;;;;13.13;11.98;;;24.30;99.90;;;;;;5059813;28;20223;-66
2022/08/19 07:51:16;;;;;;;13.63;12.52;;;24.20;99.90;;;;;;5064633;28;20260;-68
2022/08/19 07:53:44;;;;;;;12.82;11.73;;;24.20;99.90;;;;;;5047161;28;20199;-66
2022/08/19 07:56:11;;;;;;;12.07;11.18;;;24.20;99.90;;;;;;5065185;28;20183;-67
2022/08/19 07:58:39;;;;;;;13.52;12.25;;;24.10;99.90;;;;;;5051113;28;20194;-68
2022/08/19 08:01:06;;;;;;;12.82;11.63;;;24.00;99.90;;;;;;5049902;28;20236;-68
2022/08/19 08:09:15;;;;;;;12.40;11.35;;;24.00;99.90;;;;;;5044032;28;20233;-66
2022/08/19 08:11:48;;;;;;;13.18;11.98;;;24.00;99.90;;;;;;5044619;28;20222;-68
2022/08/19 08:14:21;;;;;;;13.38;11.95;;;24.00;99.90;;;;;;5042248;28;20191;-68
2022/08/19 08:16:46;;;;;;;13.65;12.35;;;23.90;99.90;;;;;;5060702;28;20190;-68
2022/08/19 08:19:14;;;;;;;13.15;11.98;;;23.80;99.90;;;;;;5053289;28;20210;-71
2022/08/19 08:21:40;;;;;;;13.02;11.93;;;23.80;99.90;;;;;;5053112;28;20186;-68
2022/08/19 08:24:06;;;;;;;13.77;12.57;;;23.80;99.90;;;;;;5050470;28;20244;-69
2022/08/19 08:26:32;;;;;;;14.73;13.43;;;23.80;99.90;;;;;;5044657;28;20188;-68
2022/08/19 08:28:57;;;;;;;14.23;12.80;;;23.80;99.90;;;;;;5047390;28;20203;-69
2022/08/19 08:31:23;;;;;;;13.65;12.55;;;23.80;99.90;;;;;;5062703;28;20242;-70
2022/08/19 08:33:49;;;;;;;12.95;11.85;;;23.70;99.90;;;;;;5056540;28;20199;-70
2022/08/19 08:36:14;;;;;;;13.73;12.40;;;23.70;99.90;;;;;;5053141;28;20194;-71
2022/08/19 08:38:45;;;;;;;14.77;13.23;;;23.70;99.90;;;;;;5054156;28;20195;-70
2022/08/19 08:41:22;;;;;;;14.02;12.75;;;23.80;99.90;;;;;;5056707;28;20170;-69
2022/08/19 08:43:52;;;;;;;14.10;12.88;;;23.70;99.90;;;;;;5059634;28;20201;-68
2022/08/19 08:46:41;;;;;;;13.82;12.57;;;23.70;99.90;;;;;;5064266;28;20178;-66
2022/08/19 08:49:50;;;;;;;14.73;13.38;;;23.70;99.90;;;;;;5044704;28;20230;-68
2022/08/19 08:52:24;;;;;;;13.67;12.53;;;23.80;99.90;;;;;;5033347;28;20214;-65
2022/08/19 08:54:54;;;;;;;14.07;12.88;;;23.80;99.90;;;;;;5043473;28;20214;-66
2022/08/19 08:57:42;;;;;;;15.38;14.07;;;23.80;99.90;;;;;;5049316;28;20260;-66
2022/08/19 09:00:16;;;;;;;14.55;13.35;;;23.80;99.90;;;;;;5042512;28;20211;-66
2022/08/19 09:02:43;;;;;;;14.15;12.68;;;23.80;99.90;;;;;;5056612;28;20208;-67
2022/08/19 09:05:12;;;;;;;14.18;12.75;;;23.90;99.90;;;;;;5059272;28;20196;-66
2022/08/19 09:08:05;;;;;;;13.10;12.13;;;23.90;99.90;;;;;;5058238;28;20186;-68
2022/08/19 09:10:36;;;;;;;13.32;12.18;;;23.80;99.90;;;;;;5056812;28;20762;-65
2022/08/19 09:13:27;;;;;;;14.20;13.10;;;23.70;99.90;;;;;;5054936;28;20186;-71
2022/08/19 09:16:05;;;;;;;13.65;12.45;;;23.70;99.90;;;;;;5055343;28;20532;-70
2022/08/19 09:18:54;;;;;;;13.32;12.20;;;23.70;99.90;;;;;;5060329;28;20277;-68
2022/08/19 09:21:22;;;;;;;13.77;12.68;;;23.70;99.90;;;;;;5066602;28;20182;-65
2022/08/19 09:23:48;;;;;;;13.90;12.57;;;23.60;99.90;;;;;;5050723;28;20273;-69
2022/08/19 09:26:17;;;;;;;13.95;12.75;;;23.70;99.90;;;;;;5065628;28;20190;-66
2022/08/19 09:28:47;;;;;;;13.90;12.57;;;23.70;99.90;;;;;;5062790;28;20186;-68
2022/08/19 09:31:15;;;;;;;13.98;12.77;;;23.80;99.90;;;;;;5054425;28;20215;-69
2022/08/19 09:33:43;;;;;;;11.38;10.48;;;23.80;99.90;;;;;;5055298;28;20225;-73
2022/08/19 09:36:12;;;;;;;13.00;11.95;;;23.80;99.90;;;;;;5059154;28;20812;-72
2022/08/19 09:38:40;;;;;;;12.88;11.75;;;23.90;99.90;;;;;;5062640;28;20675;-70
2022/08/19 09:41:07;;;;;;;11.95;11.00;;;24.00;99.90;;;;;;5046990;28;20187;-71
2022/08/19 09:43:36;;;;;;;13.82;12.73;;;24.10;99.90;;;;;;5062570;28;20713;-71
2022/08/19 09:46:05;;;;;;;12.43;11.32;;;24.10;99.90;;;;;;5064221;28;20400;-75
2022/08/19 09:48:31;;;;;;;12.50;11.50;;;24.20;99.90;;;;;;5062850;28;20252;-75
2022/08/19 09:51:03;;;;;;;14.02;12.82;;;24.20;99.90;;;;;;5064829;28;20294;-76
2022/08/19 09:53:29;;;;;;;12.82;11.70;;;24.20;99.90;;;;;;5065845;28;20705;-74
2022/08/19 09:55:57;;;;;;;12.05;11.05;;;24.30;99.90;;;;;;5052577;28;20342;-72
2022/08/19 09:58:27;;;;;;;13.13;11.85;;;24.30;99.90;;;;;;5058794;28;20192;-74
2022/08/19 10:00:58;;;;;;;12.00;11.02;;;24.30;99.90;;;;;;5064610;28;20199;-74
2022/08/19 10:03:24;;;;;;;13.07;11.95;;;24.40;99.90;;;;;;5050459;28;20214;-74
2022/08/19 10:05:50;;;;;;;12.00;11.07;;;24.40;99.90;;;;;;5064580;28;20235;-74
2022/08/19 10:08:18;;;;;;;12.68;11.65;;;24.40;99.90;;;;;;5052109;28;20245;-74
2022/08/19 10:10:44;;;;;;;12.98;11.88;;;24.40;99.90;;;;;;5049219;28;20583;-74
2022/08/19 10:13:10;;;;;;;12.38;11.38;;;24.40;99.90;;;;;;5047766;28;20283;-73
2022/08/19 10:15:39;;;;;;;12.98;11.68;;;24.40;99.90;;;;;;5060042;28;20205;-74
2022/08/19 10:18:05;;;;;;;11.23;10.30;;;24.40;99.90;;;;;;5053741;28;20244;-73
2022/08/19 10:20:31;;;;;;;12.68;11.40;;;24.40;99.90;;;;;;5045813;28;20207;-72
2022/08/19 10:22:59;;;;;;;11.80;10.80;;;24.50;99.90;;;;;;5048515;28;20198;-73
2022/08/19 10:25:26;;;;;;;11.88;10.90;;;24.50;99.90;;;;;;5063591;28;20553;-73
2022/08/19 10:27:51;;;;;;;12.07;11.10;;;24.50;99.90;;;;;;5060430;28;20195;-73
2022/08/19 10:30:17;;;;;;;12.35;11.35;;;24.50;99.90;;;;;;5062207;28;20264;-73
2022/08/19 10:32:43;;;;;;;12.45;11.18;;;24.50;99.90;;;;;;5049106;28;20700;-73
2022/08/19 10:35:08;;;;;;;12.55;11.63;;;24.50;99.90;;;;;;5063330;28;20202;-73
2022/08/19 10:37:36;;;;;;;12.27;11.27;;;24.50;99.90;;;;;;5053535;28;20226;-74
2022/08/19 10:40:04;;;;;;;12.18;11.07;;;24.50;99.90;;;;;;5055300;28;20203;-73
2022/08/19 10:42:31;;;;;;;12.00;11.13;;;24.60;99.90;;;;;;5065336;28;20198;-73
2022/08/19 10:44:56;;;;;;;12.88;11.70;;;24.60;99.90;;;;;;5057661;28;20231;-72
2022/08/19 10:47:22;;;;;;;12.80;11.68;;;24.60;99.90;;;;;;5060978;28;20654;-72
2022/08/19 10:52:33;;;;;;;12.73;11.52;;;24.60;99.90;;;;;;5049541;28;20252;-73
2022/08/19 10:57:43;;;;;;;11.38;10.48;;;24.60;99.90;;;;;;5058369;28;20905;-74
2022/08/19 11:00:10;;;;;;;11.05;10.05;;;24.60;99.90;;;;;;5056749;28;20197;-72
2022/08/19 11:02:35;;;;;;;12.00;11.10;;;24.60;99.90;;;;;;5052936;28;20246;-73
2022/08/19 11:05:01;;;;;;;11.65;10.52;;;24.60;99.90;;;;;;5051827;28;20621;-71
2022/08/19 11:07:26;;;;;;;10.68;9.68;;;24.60;99.90;;;;;;5050106;28;20210;-73
2022/08/19 11:09:52;;;;;;;11.07;10.13;;;24.60;99.90;;;;;;5052391;28;20279;-74
2022/08/19 11:12:19;;;;;;;11.80;10.80;;;24.60;99.90;;;;;;5048503;28;20285;-67
2022/08/19 11:14:44;;;;;;;12.05;11.00;;;24.60;99.90;;;;;;5057894;28;20194;-74
2022/08/19 11:17:13;;;;;;;11.48;10.57;;;24.50;99.90;;;;;;5064245;28;20164;-73
2022/08/19 11:19:39;;;;;;;11.70;10.70;;;24.40;99.90;;;;;;5057830;28;20190;-71
2022/08/19 11:22:09;;;;;;;11.32;10.43;;;24.30;99.90;;;;;;5064080;28;20183;-78
2022/08/19 11:24:35;;;;;;;11.50;10.43;;;24.30;99.90;;;;;;5060609;28;20199;-71
2022/08/19 11:27:06;;;;;;;10.48;9.60;;;24.30;99.90;;;;;;5064143;28;20186;-70
2022/08/19 11:29:34;;;;;;;11.77;10.77;;;24.20;99.90;;;;;;5061790;28;20202;-82
2022/08/19 11:32:01;;;;;;;11.55;10.23;;;24.20;99.90;;;;;;5064746;28;20204;-77
2022/08/19 11:34:28;;;;;;;10.35;9.50;;;24.20;99.90;;;;;;5046546;28;20199;-71
2022/08/19 11:36:57;;;;;;;11.55;10.50;;;24.20;99.90;;;;;;5064855;28;20174;-80
2022/08/19 11:39:23;;;;;;;11.05;10.15;;;24.10;99.90;;;;;;5054261;28;20612;-80
2022/08/19 11:41:49;;;;;;;11.10;9.90;;;24.10;99.90;;;;;;5054557;28;20187;-79
2022/08/19 11:44:14;;;;;;;16.37;10.13;;;24.00;99.90;;;;;;5056749;28;20974;-81
2022/08/19 11:46:45;;;;;;;11.00;10.07;;;24.00;99.90;;;;;;5057726;28;20182;-77
2022/08/19 11:49:10;;;;;;;9.73;8.93;;;24.00;99.90;;;;;;5043941;28;20226;-77
2022/08/19 11:51:36;;;;;;;9.82;9.13;;;24.00;99.90;;;;;;5065266;28;20796;-73
2022/08/19 11:54:05;;;;;;;9.88;9.07;;;24.00;99.90;;;;;;5061944;28;20771;-75
2022/08/19 11:56:31;;;;;;;10.65;9.73;;;24.00;99.90;;;;;;5059949;28;20217;-75
2022/08/19 11:58:56;;;;;;;10.15;9.35;;;23.90;99.90;;;;;;5050759;28;20195;-81
2022/08/19 12:01:23;;;;;;;9.10;8.40;;;23.90;99.90;;;;;;5056559;28;20240;-68
2022/08/19 12:03:51;;;;;;;8.93;8.23;;;24.00;99.90;;;;;;5062787;28;20244;-67
2022/08/19 12:06:19;;;;;;;9.73;8.93;;;24.00;99.90;;;;;;5054798;28;20236;-72
2022/08/19 12:08:45;;;;;;;8.75;8.07;;;24.10;99.90;;;;;;5054908;28;20208;-72
2022/08/19 12:11:13;;;;;;;9.43;7.68;;;24.10;99.90;;;;;;5061201;28;20625;-73
2022/08/19 12:13:39;;;;;;;8.15;7.55;;;24.10;99.90;;;;;;5062259;28;20189;-72
2022/08/19 12:16:15;;;;;;;8.65;7.95;;;24.20;99.90;;;;;;5061985;28;20293;-71
2022/08/19 12:18:45;;;;;;;8.30;7.70;;;24.20;99.90;;;;;;5061305;28;20196;-73
2022/08/19 12:21:12;;;;;;;8.75;8.02;;;24.30;99.90;;;;;;5062136;28;20244;-71
2022/08/19 12:23:37;;;;;;;9.30;8.35;;;24.40;99.90;;;;;;5061890;28;20716;-80
2022/08/19 12:26:03;;;;;;;11.23;8.40;;;24.30;99.90;;;;;;5059780;28;20241;-80
2022/08/19 12:28:29;;;;;;;8.82;7.95;;;24.30;99.90;;;;;;5064982;28;20672;-82
2022/08/19 12:30:56;;;;;;;8.65;8.00;;;24.30;99.90;;;;;;5052204;28;20215;-79
2022/08/19 12:33:24;;;;;;;8.40;7.78;;;24.30;99.90;;;;;;5053448;28;20213;-80
2022/08/19 12:35:51;;;;;;;10.77;7.60;;;24.20;99.90;;;;;;5063463;28;20196;-84
2022/08/19 12:38:16;;;;;;;7.22;6.72;;;24.20;99.90;;;;;;5054536;28;20210;-77
2022/08/19 12:40:46;;;;;;;8.02;7.32;;;24.30;99.90;;;;;;5062762;28;20211;-76
2022/08/19 12:43:11;;;;;;;8.48;7.78;;;24.30;99.90;;;;;;5048657;28;20202;-75
2022/08/19 12:45:37;;;;;;;8.05;7.38;;;24.30;99.90;;;;;;5043442;28;20745;-74
2022/08/19 12:48:03;;;;;;;8.45;7.65;;;24.40;99.90;;;;;;5056903;28;20192;-74
2022/08/19 12:50:28;;;;;;;8.50;7.90;;;24.40;99.90;;;;;;5055283;28;20227;-75
2022/08/19 12:52:54;;;;;;;9.35;8.30;;;24.40;99.90;;;;;;5057619;28;20265;-72
2022/08/19 12:55:19;;;;;;;8.88;8.15;;;24.40;99.90;;;;;;5065718;28;20290;-72
2022/08/19 12:57:45;;;;;;;8.57;7.97;;;24.40;99.90;;;;;;5065189;28;20202;-72
2022/08/19 13:00:14;;;;;;;9.43;8.57;;;24.40;99.90;;;;;;5065655;28;20276;-73